首页
METAR-TAF:

METAR-TAF

机场 :

潘泰萊里亞, 意大利

纬度: 36-49N, 经度: 011-58E, 海拔: 191米

当前天气观测

该预报发布于1小时和3分钟前的13:50 UTC
风速9节,风向西转西北,在西转西南北转西北之间变化
温度 14°C
湿度 77%
气压 1031 hPa
能见度10公里或以上
少量云层高于1500英尺

METAR: LICG 231350Z 29009KT 250V330 9999 FEW015 14/10 Q1031

时间: 15:53 (14:53 UTC)

预报

该预报发布于53分钟前的14:00 UTC
预报有效从23日的 15点(UTC)到 23日的 24点(UTC)
风速10节,风向北转西北
能见度10公里或以上
少量云层高于4000英尺

TAF: LICG 231400Z 2315/2324 34010KT 9999 FEW040

超过4000个机场的气象观测和天气预报(METAR&TAF报告)。

可查询的气象台以黄色和红色小点在地图上表示。

将鼠标移到小点上方,可查看气象台名称。

然后点击查看天气观测和预报。

如需切换地图:点击带黑十字的绿色按钮放大地图;点击带横线的绿色按钮缩小地图;或者点击绿色箭头查看邻近地区的地图。


METAR-TAF: